Flight Track Log - Related Links

Times and Time Zones

All times are in EDT time to prevent confusion due to time zone crossing. See the DAL3698 flight status page for this flight to view local times or setup timezone preferences in your user account.

Time Position Orientation Groundspeed Altitude Reporting Facility
EDT Latitude Longitude Course Direction KTS MPH feet Rate Location/Type
Fri 07:26:45 AM 42.7811 -84.6939 279° West 178 205 4,500  Level Minneapolis Center
Fri 07:27:45 AM 42.7822 -84.7906 271° West 252 290 6,600 2,727 Climbing Minneapolis Center
Fri 07:28:46 AM 42.7836 -84.8922 271° West 264 304 10,000 2,628 Climbing Minneapolis Center
Fri 07:29:46 AM 42.7836 -84.9931 270° West 266 306 11,900 1,636 Climbing Minneapolis Center
Fri 07:30:47 AM 42.7856 -85.1119 271° West 298 343 13,300 1,403 Climbing Minneapolis Center
Fri 07:31:00 AM 42.7914 -85.5513 279° West  Level FlightAware Approximate
Fri 07:31:50 AM 42.8219 -85.2347 292° West 342 394 14,800  Level Chicago Center
Fri 07:32:51 AM 42.8581 -85.3600 292° West 355 409 16,400 1,756 Climbing Chicago Center
Fri 07:33:53 AM 42.9028 -85.5144 292° West 363 418 18,400 1,756 Climbing Chicago Center
Fri 07:34:54 AM 42.9403 -85.6436 292° West 366 421 20,000 1,377 Climbing Chicago Center
Fri 07:35:55 AM 42.9778 -85.7739 292° West 367 422 21,200 1,180 Climbing Chicago Center
Fri 07:36:56 AM 43.0150 -85.9056 291° West 371 427 22,400 1,033 Climbing Chicago Center
Fri 07:37:57 AM 43.0525 -86.0269 293° West 374 430 23,300 1,033 Climbing Chicago Center
Fri 07:38:58 AM 43.0964 -86.1911 290° West 390 449 24,500 1,073 Climbing Chicago Center
Fri 07:40:00 AM 43.1350 -86.3286 291° West 386 444 25,500 976 Climbing Chicago Center
Fri 07:41:01 AM 43.1739 -86.4658 291° West 387 445 26,500 885 Climbing Chicago Center
Fri 07:42:02 AM 43.2119 -86.6044 291° West 391 450 27,300 738 Climbing Chicago Center
Fri 07:43:03 AM 43.2506 -86.7439 291° West 392 451 28,000 341 Climbing Chicago Center
Fri 07:44:05 AM 43.2900 -86.8906 290° West 410 472 28,000 98 Level Chicago Center
Fri 07:45:06 AM 43.3328 -87.0408 291° West 423 487 28,200 590 Climbing Chicago Center
Fri 07:46:07 AM 43.3744 -87.1903 291° West 422 486 29,200 885 Climbing Chicago Center
Fri 07:47:08 AM 43.4117 -87.3364 289° West 408 470 30,000 390 Climbing Chicago Center
Fri 07:48:10 AM 43.4547 -87.5019 290° West 411 473 30,000  Level Chicago Center
Fri 07:49:11 AM 43.4956 -87.6542 290° West 424 488 30,000  Level Chicago Center
Fri 07:50:12 AM 43.5367 -87.8092 290° West 430 495 30,000  Level Chicago Center
Fri 07:51:14 AM 43.5781 -87.9667 290° West 438 504 30,000  Level Chicago Center
Fri 07:52:15 AM 43.6264 -88.1525 290° West 442 509 30,000  Level Chicago Center
Fri 07:53:03 AM 43.6531 -88.2583 289° West 445 512 30,000  Level Minneapolis Center
Fri 07:54:04 AM 43.7008 -88.4458 289° West 448 516 30,000  Level Minneapolis Center
Fri 07:55:19 AM 43.7486 -88.6328 290° West 444 511 30,000  Level Chicago Center
Fri 07:56:06 AM 43.7808 -88.7625 289° West 436 502 30,000  Level Minneapolis Center
Fri 07:57:22 AM 43.8247 -88.9461 288° West 431 496 30,000  Level Chicago Center
Fri 07:58:08 AM 43.8597 -89.0756 291° West 433 498 30,000  Level Minneapolis Center
Fri 07:59:09 AM 43.8967 -89.2331 288° West 431 496 30,000  Level Minneapolis Center
Fri 08:00:10 AM 43.9361 -89.3889 289° West 429 494 30,000  Level Minneapolis Center
Fri 08:01:11 AM 43.9831 -89.5403 293° West 429 494 30,000  Level Minneapolis Center
Fri 08:02:12 AM 44.0433 -89.6853 300° West 433 498 30,000  Level Minneapolis Center
Fri 08:03:13 AM 44.1022 -89.8308 299° West 432 497 30,000  Level Minneapolis Center
Fri 08:04:14 AM 44.1700 -90.0011 299° West 432 497 30,000 -134 Level Minneapolis Center
Fri 08:05:27 AM 44.2281 -90.1472 299° West 431 496 29,700 -493 Descending Minneapolis Center
Fri 08:06:28 AM 44.2978 -90.3250 299° West 446 513 28,900 -738 Descending Minneapolis Center
Fri 08:07:29 AM 44.3592 -90.4783 299° West 451 519 28,200 -683 Descending Minneapolis Center
Fri 08:08:31 AM 44.4186 -90.6306 299° West 448 516 27,500 -780 Descending Minneapolis Center
Fri 08:09:32 AM 44.4794 -90.7842 299° West 449 517 26,600 -1,230 Descending Minneapolis Center
Fri 08:10:33 AM 44.5469 -90.9594 298° West 452 520 25,000 -1,525 Descending Minneapolis Center
Fri 08:11:34 AM 44.6042 -91.1056 299° West 439 505 23,500 -1,475 Descending Minneapolis Center
Fri 08:12:35 AM 44.6572 -91.2467 298° West 421 484 22,000 -1,475 Descending Minneapolis Center
Fri 08:13:36 AM 44.7089 -91.3817 298° West 403 464 20,500 -1,426 Descending Minneapolis Center
Fri 08:14:37 AM 44.7614 -91.5169 299° West 398 458 19,100 -1,610 Descending Minneapolis Center
Fri 08:15:39 AM 44.8144 -91.6575 298° West 405 466 17,200 -1,659 Descending Minneapolis Center
Fri 08:16:40 AM 44.8656 -91.7944 298° West 401 461 15,700 -1,560 Descending Minneapolis Center
Fri 08:17:19 AM 44.9133 -91.8986 303° West 390 449 14,600 -1,600 Descending FAA TRACON SMA TRACON (SMA)
Fri 08:17:40 AM 44.9297 -91.9400 299° West 393 452 14,100 -1,650 Descending FAA TRACON SMA TRACON (SMA)
Fri 08:17:59 AM 44.9472 -91.9911 296° West 383 441 13,500 -1,500 Descending FAA TRACON SMA TRACON (SMA)
Fri 08:18:20 AM 44.9611 -92.0308 296° West 374 430 13,100 -1,171 Descending FAA TRACON SMA TRACON (SMA)
Fri 08:18:40 AM 44.9764 -92.0703 299° West 371 427 12,700 -1,385 Descending FAA TRACON SMA TRACON (SMA)
Fri 08:18:59 AM 44.9925 -92.1189 295° West 366 421 12,200 -1,385 Descending FAA TRACON SMA TRACON (SMA)
Fri 08:19:19 AM 45.0058 -92.1578 296° West 362 417 11,800 -1,200 Descending FAA TRACON SMA TRACON (SMA)
Fri 08:19:39 AM 45.0208 -92.1972 298° West 361 415 11,400 -1,200 Descending FAA TRACON SMA TRACON (SMA)
Fri 08:19:59 AM 45.0372 -92.2450 296° West 364 419 11,000 -732 Descending FAA TRACON SMA TRACON (SMA)
Fri 08:20:20 AM 45.0472 -92.2864 289° West 360 414 10,900 -150 Descending FAA TRACON SMA TRACON (SMA)
Fri 08:20:39 AM 45.0464 -92.3308 268° West 365 420 10,900  Level FAA TRACON SMA TRACON (SMA)
Fri 08:20:59 AM 45.0386 -92.3858 259° West 372 428 10,900  Level FAA TRACON SMA TRACON (SMA)
Fri 08:21:19 AM 45.0308 -92.4294 256° West 373 429 10,900 -150 Level FAA TRACON SMA TRACON (SMA)
Fri 08:21:39 AM 45.0172 -92.4678 243° Southwest 364 419 10,800 -732 Descending FAA TRACON SMA TRACON (SMA)
Fri 08:22:00 AM 44.9958 -92.5072 233° Southwest 338 389 10,400 -1,024 Descending FAA TRACON SMA TRACON (SMA)
Fri 08:22:20 AM 44.9781 -92.5361 229° Southwest 321 369 10,100 -900 Descending FAA TRACON SMA TRACON (SMA)
Fri 08:22:40 AM 44.9619 -92.5636 230° Southwest 304 350 9,800 -1,200 Descending FAA TRACON SMA TRACON (SMA)
Fri 08:23:00 AM 44.9439 -92.5969 233° Southwest 284 327 9,300 -1,200 Descending FAA TRACON SMA TRACON (SMA)
Fri 08:23:20 AM 44.9308 -92.6222 234° Southwest 269 310 9,000 -1,050 Descending FAA TRACON SMA TRACON (SMA)
Fri 08:23:40 AM 44.9164 -92.6469 230° Southwest 261 300 8,600 -1,200 Descending FAA TRACON SMA TRACON (SMA)
Fri 08:24:00 AM 44.8964 -92.6719 222° Southwest 255 293 8,200 -1,200 Descending FAA TRACON SMA TRACON (SMA)
Fri 08:24:20 AM 44.8772 -92.6897 213° Southwest 259 298 7,800 -1,200 Descending FAA TRACON SMA TRACON (SMA)
Fri 08:24:40 AM 44.8594 -92.7081 216° Southwest 261 300 7,400 -1,350 Descending FAA TRACON SMA TRACON (SMA)
Fri 08:25:00 AM 44.8369 -92.7308 216° Southwest 258 297 6,900 -1,200 Descending FAA TRACON SMA TRACON (SMA)
Fri 08:25:20 AM 44.8203 -92.7472 215° Southwest 245 282 6,600 -1,050 Descending FAA TRACON SMA TRACON (SMA)
Fri 08:25:40 AM 44.8047 -92.7617 213° Southwest 231 266 6,200 -1,200 Descending FAA TRACON SMA TRACON (SMA)
Fri 08:26:00 AM 44.7836 -92.7792 210° Southwest 224 258 5,800 -1,050 Descending FAA TRACON SMA TRACON (SMA)
Fri 08:26:20 AM 44.7681 -92.7917 210° Southwest 216 249 5,500 -1,050 Descending FAA TRACON SMA TRACON (SMA)
Fri 08:26:40 AM 44.7544 -92.8064 218° Southwest 213 245 5,100 -1,050 Descending FAA TRACON SMA TRACON (SMA)
Fri 08:27:00 AM 44.7497 -92.8342 257° West 204 235 4,800 -900 Descending FAA TRACON SMA TRACON (SMA)
Fri 08:27:20 AM 44.7503 -92.8569 272° West 190 219 4,500 -1,050 Descending FAA TRACON SMA TRACON (SMA)
Fri 08:27:40 AM 44.7511 -92.8803 273° West 192 221 4,100 -900 Descending FAA TRACON SMA TRACON (SMA)
Fri 08:28:00 AM 44.7569 -92.9083 286° West 199 229 3,900 -146 Descending FAA TRACON SMA TRACON (SMA)
Fri 08:28:21 AM 44.7661 -92.9281 303° West 199 229 4,000  Climbing FAA TRACON SMA TRACON (SMA)
Fri 08:28:41 AM 44.7747 -92.9481 301° West 196 226 3,900 -150 Descending FAA TRACON SMA TRACON (SMA)
Fri 08:29:01 AM 44.7856 -92.9731 301° West 193 222 3,900  Level FAA TRACON SMA TRACON (SMA)
Fri 08:29:21 AM 44.7936 -92.9928 300° West 192 221 3,900  Level FAA TRACON SMA TRACON (SMA)
Fri 08:29:40 AM 44.8025 -93.0119 303° West 191 220 3,900 -615 Level FAA TRACON SMA TRACON (SMA)
Fri 08:30:00 AM 44.8131 -93.0364 301° West 187 215 3,500 -1,050 Descending FAA TRACON SMA TRACON (SMA)
Fri 08:30:20 AM 44.8206 -93.0544 300° West 178 205 3,200 -750 Descending FAA TRACON SMA TRACON (SMA)
Fri 08:30:40 AM 44.8283 -93.0717 302° West 170 196 3,000 -900 Descending FAA TRACON SMA TRACON (SMA)
Fri 08:31:00 AM 44.8372 -93.0919 302° West 161 185 2,600 -1,050 Descending FAA TRACON SMA TRACON (SMA)
Fri 08:31:20 AM 44.8436 -93.1069 301° West 149 171 2,300 -750 Descending FAA TRACON SMA TRACON (SMA)
Fri 08:31:40 AM 44.8500 -93.1219 301° West 144 166 2,100 -750 Descending FAA TRACON SMA TRACON (SMA)
Fri 08:32:00 AM 44.8578 -93.1397 302° West 139 160 1,800 -900 Descending FAA TRACON SMA TRACON (SMA)
Fri 08:32:20 AM 44.8639 -93.1536 302° West 138 159 1,500 -750 Descending FAA TRACON SMA TRACON (SMA)
Fri 08:32:40 AM 44.8700 -93.1681 301° West 137 158 1,300 -750 Descending FAA TRACON SMA TRACON (SMA)
Fri 08:33:00 AM 44.8778 -93.1858 302° West 136 157 1,000 -900 Descending FAA TRACON SMA TRACON (SMA)
Fri 08:34:00 AM 44.8667 -93.2167 295° West  Level FlightAware Approximate
Fri 08:41:00 AM 44.8820 -93.2218 295° West  Level Estimated

Login

Don't have an account? Register now (free) for customized features, flight alerts, and more!